Time;durP1;ratioP1;P1;durP2;ratioP2;P2;SDS_P1;SDS_P2;PMS_P1;PMS_P2;Temp;Humidity;BMP_temperature;BMP_pressure;BME280_temperature;BME280_humidity;BME280_pressure;Samples;Min_cycle;Max_cycle;Signal;HPM_P1;HPM_P2
2022/08/30 00:04:00;;;;;;;5.63;4.37;;;;;;;16.96;100.00;97905.47;18070698;32;20095;-60
2022/08/30 00:14:02;;;;;;;;;;;;;;;16.85;100.00;97893.91;18237367;32;20058;-60
2022/08/30 00:24:05;;;;;;;8.13;4.43;;;;;;;16.76;100.00;97882.91;18236610;32;19961;-60
2022/08/30 00:34:07;;;;;;;4.95;4.22;;;;;;;16.65;100.00;97871.41;18236846;32;20088;-60
2022/08/30 00:44:10;;;;;;;7.68;4.50;;;;;;;16.53;100.00;97877.34;18236518;32;20058;-60
2022/08/30 00:54:13;;;;;;;5.00;4.37;;;;;;;16.43;100.00;97863.91;18236252;32;20461;-60
2022/08/30 01:04:18;;;;;;;4.53;4.13;;;;;;;16.35;100.00;97861.88;18100736;32;20129;-60
2022/08/30 01:14:21;;;;;;;4.68;4.00;;;;;;;16.32;100.00;97874.25;18088400;32;20221;-60
2022/08/30 01:24:28;;;;;;;6.43;4.20;;;;;;;16.27;100.00;97869.66;18087956;32;20395;-60
2022/08/30 01:34:30;;;;;;;6.75;4.25;;;;;;;16.15;100.00;97863.09;17925279;33;20094;-60
2022/08/30 01:44:33;;;;;;;5.18;4.20;;;;;;;16.05;100.00;97885.94;17976166;33;20079;-60
2022/08/30 01:54:38;;;;;;;5.78;4.55;;;;;;;15.98;100.00;97882.75;17963067;33;20120;-60
2022/08/30 02:04:41;;;;;;;5.62;4.47;;;;;;;15.88;100.00;97891.94;18067762;32;20059;-59
2022/08/30 02:14:44;;;;;;;5.15;4.43;;;;;;;15.81;100.00;97881.41;18231310;32;20054;-60
2022/08/30 02:24:46;;;;;;;5.03;4.03;;;;;;;15.70;100.00;97886.19;18231744;32;20081;-60
2022/08/30 02:34:49;;;;;;;4.85;4.03;;;;;;;15.61;100.00;97882.56;18096846;32;20067;-60
2022/08/30 02:44:52;;;;;;;6.77;4.87;;;;;;;15.49;100.00;97882.22;18100596;32;20110;-60
2022/08/30 02:54:55;;;;;;;5.72;4.12;;;;;;;15.47;100.00;97865.31;18107300;32;20079;-60
2022/08/30 03:05:03;;;;;;;7.32;4.40;;;;;;;15.36;100.00;97870.12;18212193;32;20412;-60
2022/08/30 03:15:07;;;;;;;5.53;4.50;;;;;;;15.29;100.00;97853.34;18240660;32;20061;-60
2022/08/30 03:25:09;;;;;;;6.78;4.47;;;;;;;15.23;100.00;97842.53;18226177;32;20066;-60
2022/08/30 03:35:13;;;;;;;6.28;4.87;;;;;;;15.17;100.00;97834.72;18225599;32;20069;-60
2022/08/30 03:45:17;;;;;;;6.20;4.53;;;;;;;15.16;100.00;97833.12;18239395;32;20073;-60
2022/08/30 03:55:20;;;;;;;7.93;4.70;;;;;;;15.06;100.00;97836.78;18041459;32;20082;-60
2022/08/30 04:05:22;;;;;;;7.15;5.05;;;;;;;15.00;100.00;97857.84;18041747;32;20064;-60
2022/08/30 04:15:25;;;;;;;6.65;4.50;;;;;;;14.94;100.00;97869.09;17967919;32;20087;-60
2022/08/30 04:25:27;;;;;;;5.70;4.37;;;;;;;14.86;100.00;97863.22;18064600;32;20075;-60
2022/08/30 04:35:30;;;;;;;6.05;4.87;;;;;;;14.80;100.00;97864.41;18102293;32;20115;-60
2022/08/30 04:45:34;;;;;;;6.30;4.43;;;;;;;14.77;100.00;97870.41;18207733;32;20059;-60
2022/08/30 04:55:42;;;;;;;4.80;4.00;;;;;;;14.71;100.00;97866.94;18235801;32;20115;-60
2022/08/30 05:05:49;;;;;;;4.97;4.05;;;;;;;14.70;100.00;97875.41;18208800;32;20066;-60
2022/08/30 05:15:52;;;;;;;4.22;3.83;;;;;;;14.74;100.00;97873.72;18235061;32;20382;-60
2022/08/30 05:25:55;;;;;;;5.15;4.22;;;;;;;14.73;100.00;97878.38;18075338;32;20143;-60
2022/08/30 05:35:57;;;;;;;5.28;4.40;;;;;;;14.87;100.00;97885.81;18086785;32;20082;-60
2022/08/30 05:46:05;;;;;;;6.90;4.43;;;;;;;15.12;100.00;97887.38;18098900;32;20122;-60
2022/08/30 05:56:14;;;;;;;5.40;4.47;;;;;;;15.38;100.00;97893.25;18119313;32;20106;-60
2022/08/30 06:06:17;;;;;;;5.47;4.07;;;;;;;15.71;100.00;97889.75;18232621;32;20515;-60
2022/08/30 06:16:22;;;;;;;5.57;4.62;;;;;;;16.15;100.00;97880.25;18217785;32;20089;-60
2022/08/30 06:26:27;;;;;;;7.10;5.10;;;;;;;16.69;100.00;97886.06;18231851;32;20059;-60
2022/08/30 06:36:34;;;;;;;7.05;5.80;;;;;;;17.05;100.00;97879.03;18217458;32;20060;-60
2022/08/30 06:46:40;;;;;;;6.68;5.43;;;;;;;17.34;100.00;97875.09;18230779;32;20058;-60
2022/08/30 06:56:45;;;;;;;8.02;5.32;;;;;;;17.80;100.00;97876.69;18230431;32;20455;-60
2022/08/30 07:07:05;;;;;;;7.40;5.65;;;;;;;18.45;98.93;97888.16;18216187;32;20481;-60
2022/08/30 07:27:37;;;;;;;13.02;7.75;;;;;;;19.45;95.31;97894.03;18230029;32;20351;-61
2022/08/30 07:38:17;;;;;;;9.20;6.47;;;;;;;20.06;83.43;97895.88;18227766;32;20157;-60
2022/08/30 07:49:05;;;;;;;7.18;5.62;;;;;;;20.71;78.26;97904.87;18235511;32;20389;-61
2022/08/30 07:59:14;;;;;;;8.68;5.78;;;;;;;21.36;80.52;97906.56;18238265;32;20062;-61
2022/08/30 08:09:18;;;;;;;7.10;5.40;;;;;;;22.09;79.13;97908.03;18237596;32;20062;-61
2022/08/30 08:19:23;;;;;;;6.28;4.90;;;;;;;22.71;75.17;97921.91;18237456;32;20054;-61
2022/08/30 08:30:16;;;;;;;5.75;5.12;;;;;;;22.75;77.76;97920.06;18236936;32;20138;-61
2022/08/30 08:41:55;;;;;;;8.60;5.22;;;;;;;22.72;76.75;97913.34;18220559;32;20507;-61
2022/08/30 09:03:50;;;;;;;5.25;4.75;;;;;;;23.44;70.42;97900.94;18229256;32;20062;-61
2022/08/30 09:13:54;;;;;;;5.97;5.05;;;;;;;24.07;71.14;97910.59;18235738;32;20043;-61
2022/08/30 09:34:57;;;;;;;5.93;5.10;;;;;;;24.29;67.51;97904.47;18234021;32;20058;-61
2022/08/30 09:45:21;;;;;;;6.43;5.20;;;;;;;24.29;69.33;97900.91;18219715;32;20110;-61
2022/08/30 09:56:10;;;;;;;;;;;;;;;;;;;;;
2022/08/30 10:06:57;;;;;;;7.03;5.35;;;;;;;24.66;65.45;97875.78;18036664;32;19970;-61
2022/08/30 10:17:23;;;;;;;;;;;;;;;25.08;63.36;97864.12;18036123;32;20131;-61
2022/08/30 10:27:47;;;;;;;7.45;5.15;;;;;;;25.63;67.05;97857.75;18035831;32;19985;-61
2022/08/30 10:38:05;;;;;;;8.40;4.82;;;;;;;26.00;63.08;97858.06;18134926;32;20050;-61
2022/08/30 10:48:20;;;;;;;7.12;5.25;;;;;;;26.51;62.16;97853.41;18231067;32;20128;-60
2022/08/30 10:58:25;;;;;;;7.28;5.50;;;;;;;26.45;59.33;97858.47;18216933;32;20074;-61
2022/08/30 11:08:57;;;;;;;;;;;;;;;;;;;;;
2022/08/30 11:19:26;;;;;;;6.75;5.50;;;;;;;27.49;59.11;97844.47;18240555;32;20054;-61
2022/08/30 11:29:39;;;;;;;7.12;6.12;;;;;;;28.11;52.92;97840.38;18240099;32;20050;-61
2022/08/30 11:40:04;;;;;;;;;;;;;;;28.28;56.08;97847.31;18239488;32;20370;-61
2022/08/30 11:51:02;;;;;;;7.28;6.37;;;;;;;28.54;55.32;97830.41;18239405;32;19962;-61
2022/08/30 12:01:17;;;;;;;6.30;5.28;;;;;;;28.63;58.91;97824.56;17981058;33;20066;-61
2022/08/30 12:12:09;;;;;;;7.47;5.82;;;;;;;28.26;60.09;97811.56;17975634;33;20142;-62
2022/08/30 12:22:29;;;;;;;6.05;5.50;;;;;;;28.62;54.13;97797.09;17967340;32;20081;-61
2022/08/30 12:32:46;;;;;;;6.57;5.97;;;;;;;28.57;59.69;97801.03;18097072;32;20350;-61
2022/08/30 12:43:06;;;;;;;7.72;5.55;;;;;;;28.58;58.51;97792.31;18223393;32;20065;-61
2022/08/30 12:53:30;;;;;;;7.25;5.78;;;;;;;28.27;58.96;97788.09;18236145;32;20050;-61
2022/08/30 13:03:36;;;;;;;5.70;5.12;;;;;;;27.84;65.86;97798.84;18101021;32;20054;-61
2022/08/30 13:13:41;;;;;;;6.80;5.85;;;;;;;27.50;67.04;97779.44;18100428;32;20117;-61
2022/08/30 13:23:51;;;;;;;7.05;5.85;;;;;;;27.21;69.09;97757.66;18100401;32;20453;-61
2022/08/30 13:33:55;;;;;;;6.40;5.80;;;;;;;27.08;70.82;97734.12;18101019;32;20051;-61
2022/08/30 13:44:06;;;;;;;6.80;6.10;;;;;;;26.97;71.09;97714.59;18107732;32;20155;-61
2022/08/30 13:54:15;;;;;;;10.35;6.53;;;;;;;27.10;74.11;97697.69;18118598;32;20051;-61
2022/08/30 14:04:19;;;;;;;6.22;5.60;;;;;;;27.21;74.00;97706.91;18106736;32;20107;-61
2022/08/30 14:14:24;;;;;;;6.53;5.93;;;;;;;27.15;72.51;97725.88;18223080;32;20069;-61
2022/08/30 14:25:00;;;;;;;6.57;5.40;;;;;;;26.98;73.66;97720.94;18220698;32;20054;-61
2022/08/30 14:35:04;;;;;;;5.85;5.22;;;;;;;26.86;77.24;97700.59;18219341;32;20057;-61
2022/08/30 14:45:09;;;;;;;6.28;5.68;;;;;;;26.76;77.86;97701.22;18239607;32;20077;-61
2022/08/30 14:55:13;;;;;;;6.70;6.05;;;;;;;26.65;77.47;97701.06;18241078;32;20362;-61
2022/08/30 15:05:16;;;;;;;6.30;5.68;;;;;;;26.51;78.77;97692.56;18226746;32;20059;-61
2022/08/30 15:15:21;;;;;;;5.47;4.82;;;;;;;26.27;78.01;97672.47;18240663;32;20046;-61
2022/08/30 15:25:25;;;;;;;6.97;5.62;;;;;;;26.07;76.39;97669.00;18240094;32;20107;-61
2022/08/30 15:35:32;;;;;;;6.12;5.53;;;;;;;25.90;78.75;97659.22;18239682;32;20065;-61
2022/08/30 15:45:43;;;;;;;7.00;5.47;;;;;;;25.77;80.00;97653.06;18226299;32;20051;-61
2022/08/30 15:55:47;;;;;;;6.03;5.50;;;;;;;25.71;80.96;97660.13;18238164;32;20065;-61
2022/08/30 16:05:53;;;;;;;6.50;5.85;;;;;;;25.58;80.14;97670.56;18237926;32;20065;-61
2022/08/30 16:16:02;;;;;;;6.60;5.93;;;;;;;25.37;80.50;97666.25;18237841;32;20054;-61
2022/08/30 16:26:06;;;;;;;9.25;6.22;;;;;;;25.16;80.84;97677.72;18237452;32;20370;-61
2022/08/30 16:36:12;;;;;;;7.87;6.00;;;;;;;25.04;81.78;97700.03;18223570;32;20062;-61
2022/08/30 16:46:17;;;;;;;6.53;5.90;;;;;;;24.80;82.71;97690.03;18236169;32;20049;-61
2022/08/30 16:56:26;;;;;;;6.68;4.95;;;;;;;24.60;81.60;97695.56;18236150;32;20042;-61
2022/08/30 17:06:31;;;;;;;7.85;5.00;;;;;;;24.31;81.02;97703.22;18234857;32;20054;-61
2022/08/30 17:16:37;;;;;;;5.22;3.60;;;;;;;23.92;75.20;97719.66;18235786;32;20050;-61
2022/08/30 17:26:43;;;;;;;3.95;3.00;;;;;;;23.57;67.42;97727.81;18221719;32;20380;-61
2022/08/30 17:36:50;;;;;;;3.15;2.40;;;;;;;23.06;64.81;97722.91;18234318;32;20065;-61
2022/08/30 17:46:54;;;;;;;3.12;2.22;;;;;;;22.63;66.65;97744.53;18233898;32;20141;-61
2022/08/30 17:56:58;;;;;;;3.45;2.67;;;;;;;22.19;70.04;97742.38;18220136;32;20094;-60
2022/08/30 18:07:02;;;;;;;3.47;2.80;;;;;;;21.82;72.20;97723.09;18218990;32;20053;-61
2022/08/30 18:17:05;;;;;;;5.25;3.20;;;;;;;21.54;74.02;97731.97;18217787;32;20392;-61
2022/08/30 18:27:08;;;;;;;3.08;2.78;;;;;;;21.17;76.40;97751.09;18232042;32;20111;-61
2022/08/30 18:37:12;;;;;;;5.07;2.62;;;;;;;20.90;77.16;97771.72;18231376;32;20046;-60
2022/08/30 18:47:18;;;;;;;4.22;2.40;;;;;;;20.71;80.04;97788.69;18231131;32;20152;-61
2022/08/30 18:57:24;;;;;;;2.70;2.40;;;;;;;20.50;80.33;97811.41;18216865;32;20428;-60
2022/08/30 19:07:29;;;;;;;3.45;2.30;;;;;;;20.36;80.52;97821.81;18230048;32;20063;-61
2022/08/30 19:17:41;;;;;;;2.15;1.92;;;;;;;20.21;82.03;97834.94;18230080;32;20115;-61
2022/08/30 19:27:44;;;;;;;3.65;2.30;;;;;;;20.17;81.22;97857.91;18234399;32;20109;-60
2022/08/30 19:37:47;;;;;;;2.47;2.10;;;;;;;20.13;80.98;97901.69;18213218;32;20054;-61
2022/08/30 19:47:51;;;;;;;;;;;;;;;20.15;80.56;97913.94;18239439;32;20437;-60
2022/08/30 19:57:55;;;;;;;2.67;2.10;;;;;;;20.17;81.55;97919.09;18239383;32;19946;-60
2022/08/30 20:07:59;;;;;;;4.75;2.20;;;;;;;20.07;81.89;97919.47;18199869;32;20335;-60
2022/08/30 20:18:02;;;;;;;3.90;2.80;;;;;;;20.01;82.11;97918.84;18211973;32;20478;-60
2022/08/30 20:28:14;;;;;;;3.50;2.50;;;;;;;19.98;82.84;97916.75;18237121;32;20075;-60
2022/08/30 20:38:20;;;;;;;3.30;2.83;;;;;;;19.91;85.14;97905.44;18236003;32;20389;-60
2022/08/30 20:48:25;;;;;;;4.80;2.67;;;;;;;19.83;86.80;97898.84;18236775;32;20053;-60
2022/08/30 20:58:29;;;;;;;4.82;2.62;;;;;;;19.68;87.29;97888.34;18210374;32;20125;-60
2022/08/30 21:08:32;;;;;;;3.35;2.70;;;;;;;19.56;87.58;97889.81;18221966;32;20069;-60
2022/08/30 21:18:36;;;;;;;3.97;2.40;;;;;;;19.47;88.85;97881.59;18234940;32;20058;-60
2022/08/30 21:28:39;;;;;;;3.87;2.72;;;;;;;19.32;88.79;97870.31;18235011;32;20070;-60
2022/08/30 21:38:43;;;;;;;3.10;2.23;;;;;;;19.21;90.05;97867.06;18234269;32;20129;-60
2022/08/30 21:48:45;;;;;;;3.25;2.50;;;;;;;19.08;90.24;97879.81;18220420;32;20042;-60
2022/08/30 21:58:48;;;;;;;2.90;2.50;;;;;;;18.91;91.70;97895.09;18219729;32;20101;-60
2022/08/30 22:08:51;;;;;;;2.33;1.90;;;;;;;18.69;90.86;97901.47;18232644;32;20042;-60
2022/08/30 22:18:54;;;;;;;2.90;2.13;;;;;;;18.72;91.35;97916.44;18232289;32;20381;-60
2022/08/30 22:28:57;;;;;;;4.67;2.00;;;;;;;18.72;91.52;97936.44;18232307;32;20419;-61
2022/08/30 22:39:02;;;;;;;3.17;1.90;;;;;;;18.71;92.17;97942.22;18231666;32;20124;-61
2022/08/30 22:49:07;;;;;;;3.70;1.98;;;;;;;18.55;92.51;97941.84;18231422;32;20050;-61
2022/08/30 22:59:10;;;;;;;2.17;1.98;;;;;;;18.32;94.72;97952.03;18231789;32;20094;-61
2022/08/30 23:09:12;;;;;;;1.98;1.77;;;;;;;18.27;96.16;97945.56;18106764;32;20071;-60
2022/08/30 23:19:15;;;;;;;2.05;1.62;;;;;;;18.24;96.86;97946.22;18106483;32;20119;-60
